This is the latest recevied weather packets stored in our database for station/object PU3XGS-13. If no packets are shown the sender has not sent any weather packets the latest 10 day(s).
| Time | Temp. | Humidity | Pressure | Rain* | Wind** | Luminosity | Snow |
|---|---|---|---|---|---|---|---|
| 1777762592 | 22.22° C | 57% | 1021.6 hPa | - | - | - | - |
| 1777760192 | 23.33° C | 56% | 1020.9 hPa | - | - | - | - |
| 1777755392 | 22.22° C | 59% | 1020.2 hPa | - | - | - | - |
| 1777752992 | 22.22° C | 60% | 1019.6 hPa | - | - | - | - |
| 1777750592 | 22.78° C | 61% | 1019.1 hPa | - | - | - | - |
| 1777748192 | 25° C | 59% | 1018.2 hPa | - | - | - | - |
| 1777745792 | 25° C | 59% | 1018 hPa | - | - | - | - |
| 1777743392 | 24.44° C | 59% | 1017.4 hPa | - | - | - | - |
| 1777740992 | 25° C | 60% | 1017.4 hPa | - | - | - | - |
| 1777738593 | 26.11° C | 59% | 1016.8 hPa | - | - | - | - |
| 1777736192 | 28.33° C | 56% | 1016 hPa | - | - | - | - |
| 1777733792 | 28.33° C | 58% | 1016.2 hPa | - | - | - | - |
| 1777731392 | 27.78° C | 60% | 1016.2 hPa | - | - | - | - |
| 1777728993 | 25.56° C | 66% | 1016.6 hPa | - | - | - | - |
| 1777726593 | 25° C | 69% | 1016 hPa | - | - | - | - |
| 1777724192 | 23.89° C | 72% | 1015.4 hPa | - | - | - | - |
| 1777721793 | 23.89° C | 71% | 1014.2 hPa | - | - | - | - |
| 1777719393 | 23.33° C | 72% | 1012.9 hPa | - | - | - | - |
| 1777716992 | 23.89° C | 69% | 1012 hPa | - | - | - | - |
| 1777714592 | 22.78° C | 73% | 1011.4 hPa | - | - | - | - |
| 1777712192 | 22.78° C | 72% | 1010.3 hPa | - | - | - | - |
| 1777709792 | 22.22° C | 73% | 1010 hPa | - | - | - | - |
| 1777707392 | 23.33° C | 69% | 1009.6 hPa | - | - | - | - |
| 1777704992 | 22.22° C | 74% | 1009.5 hPa | - | - | - | - |
| 1777702592 | 23.33° C | 71% | 1010.2 hPa | - | - | - | - |
* Rain since midnight (hover to see other rain measurements)
** Current wind speed in m/s (hover to see current wind gust speed)